Maria — SV7156 — position and weather

sailwx.info

Track history (hours):
 
Tides and Currents Weather Stations Pressure Air Temp Water Temp Dewpoint Dewpoint Depression Visibility Wind Speed Wind Dir Waves Ship Positions

Maria

Last reported at 2015-Mar-28 23:27 UTC. Time now 2015-Mar-30 09:27 UTC.
Position N 37°58' E 023°35'.

Length 74 m; draft 4.5 m.

Type: Ship. MMSI: 237493000.

Date/timePositionNaut miles runAvg speedWind from/ knotsBaromVisibWave heightAir tempDewpointWater temp
2015-Mar-28 23:27N 37°58' E 023°35'6 6.2
2015-Mar-28 22:33N 37°53' E 023°31'2 1.8
2015-Mar-28 21:33N 37°51' E 023°30'0 0.1
2015-Mar-28 20:33N 37°51' E 023°30'2 1.6
2015-Mar-28 19:33N 37°52' E 023°31'2 1.6
2015-Mar-28 18:33N 37°53' E 023°33'0 0.0
2015-Mar-28 17:33N 37°53' E 023°33'0 0.4
2015-Mar-28 16:33N 37°54' E 023°33'4 4.3
2015-Mar-28 15:33N 37°58' E 023°35'0 0.0
2015-Mar-28 14:33N 37°58' E 023°35'0 0.0
2015-Mar-28 13:33N 37°58' E 023°35'1 0.8
2015-Mar-28 12:33N 37°57' E 023°34'4 3.8
2015-Mar-28 11:33N 38°01' E 023°31'0 0.0
2015-Mar-28 10:33N 38°01' E 023°32'0 0.0
2015-Mar-28 09:33N 38°01' E 023°32'0 0.0
2015-Mar-28 08:33N 38°01' E 023°32'0 0.0
2015-Mar-28 07:33N 38°01' E 023°32'0 0.0
2015-Mar-28 06:33N 38°01' E 023°32'0 0.0
2015-Mar-28 05:33N 38°01' E 023°32'2 2.4
2015-Mar-28 04:33N 38°01' E 023°34'0 0.0
2015-Mar-28 03:33N 38°01' E 023°34'0 0.0
2015-Mar-28 02:33N 38°01' E 023°34'0 0.0
2015-Mar-28 01:33N 38°01' E 023°34'0 0.0
2015-Mar-28 00:33N 38°01' E 023°34'0 0.1
2015-Mar-27 23:28N 38°01' E 023°35'0 0.1
2015-Mar-27 22:33N 38°01' E 023°34'0 0.0
2015-Mar-27 21:33N 38°01' E 023°34'4 0.1
2015-Mar-25 21:14N 37°58' E 023°35'5 7.0
2015-Mar-25 20:33N 37°53' E 023°33'2 2.0
2015-Mar-25 19:33N 37°51' E 023°32'0 0.0
2015-Mar-25 18:33N 37°51' E 023°32'0 0.0
2015-Mar-25 17:33N 37°51' E 023°32'0 0.0
2015-Mar-25 16:33N 37°51' E 023°32'0 0.0
2015-Mar-25 15:32N 37°51' E 023°32'6 6.3
2015-Mar-25 14:32N 37°57' E 023°35'0 0.3
2015-Mar-25 13:32N 37°57' E 023°35'0 0.0
2015-Mar-25 12:27N 37°57' E 023°35'0 0.0
2015-Mar-25 11:33N 37°57' E 023°35'0 0.0
2015-Mar-25 10:33N 37°57' E 023°35'0 0.0
2015-Mar-25 09:27N 37°57' E 023°35'0 0.0
2015-Mar-25 08:33N 37°57' E 023°35'0 0.0
2015-Mar-25 07:33N 37°57' E 023°35'0 0.0
2015-Mar-25 06:33N 37°57' E 023°35'1 0.6
2015-Mar-25 05:33N 37°58' E 023°35'0 0.0
2015-Mar-24 06:26N 37°58' E 023°35'2 1.8
2015-Mar-24 05:17N 37°59' E 023°33'3 0.3
2015-Mar-23 20:13N 38°01' E 023°34'3 0.2
2015-Mar-23 06:04N 37°58' E 023°33'2 2.6
2015-Mar-23 05:26N 37°58' E 023°35'0 0.0
2015-Mar-21 04:33N 37°57' E 023°35'3 2.6
2015-Mar-21 03:30N 37°55' E 023°33'0 0.0
2015-Mar-21 02:33N 37°55' E 023°33'0 0.0
2015-Mar-21 01:33N 37°55' E 023°33'1 0.9
2015-Mar-21 00:33N 37°54' E 023°33'2 1.6
2015-Mar-20 23:33N 37°53' E 023°32'0 0.0
2015-Mar-20 22:33N 37°53' E 023°32'0 0.0
2015-Mar-20 21:33N 37°53' E 023°32'0 0.0
2015-Mar-20 20:33N 37°53' E 023°32'0 0.0
2015-Mar-20 19:33N 37°53' E 023°32'0 0.0
2015-Mar-20 18:33N 37°53' E 023°32'0 0.0
2015-Mar-20 17:33N 37°53' E 023°32'0 0.1
2015-Mar-20 16:33N 37°52' E 023°32'5 1.0
2015-Mar-20 11:24N 37°56' E 023°37'3 3.4
2015-Mar-20 10:33N 37°55' E 023°34'0 0.0
2015-Mar-20 09:33N 37°55' E 023°34'2 2.4
2015-Mar-20 08:32N 37°57' E 023°35'1 0.6
2015-Mar-20 07:23N 37°58' E 023°35'2 0.1
2015-Mar-19 06:25N 37°58' E 023°33'  
Track history (hours):
 
Tides and Currents Weather Stations Pressure Air Temp Water Temp Dewpoint Dewpoint Depression Visibility Wind Speed Wind Dir Waves Ship Positions

Maria

Last reported at 2015-Mar-28 23:27 UTC. Time now 2015-Mar-30 09:27 UTC.
Position N 37°58' E 023°35'.

Length 74 m; draft 4.5 m.

Type: Ship. MMSI: 237493000.

Date/timePositionNaut miles runAvg speedWind from/ knotsBaromVisibWave heightAir tempDewpointWater temp
2015-Mar-28 23:27N 37°58' E 023°35'6 6.2
2015-Mar-28 22:33N 37°53' E 023°31'2 1.8
2015-Mar-28 21:33N 37°51' E 023°30'0 0.1
2015-Mar-28 20:33N 37°51' E 023°30'2 1.6
2015-Mar-28 19:33N 37°52' E 023°31'2 1.6
2015-Mar-28 18:33N 37°53' E 023°33'0 0.0
2015-Mar-28 17:33N 37°53' E 023°33'0 0.4
2015-Mar-28 16:33N 37°54' E 023°33'4 4.3
2015-Mar-28 15:33N 37°58' E 023°35'0 0.0
2015-Mar-28 14:33N 37°58' E 023°35'0 0.0
2015-Mar-28 13:33N 37°58' E 023°35'1 0.8
2015-Mar-28 12:33N 37°57' E 023°34'4 3.8
2015-Mar-28 11:33N 38°01' E 023°31'0 0.0
2015-Mar-28 10:33N 38°01' E 023°32'0 0.0
2015-Mar-28 09:33N 38°01' E 023°32'0 0.0
2015-Mar-28 08:33N 38°01' E 023°32'0 0.0
2015-Mar-28 07:33N 38°01' E 023°32'0 0.0
2015-Mar-28 06:33N 38°01' E 023°32'0 0.0
2015-Mar-28 05:33N 38°01' E 023°32'2 2.4
2015-Mar-28 04:33N 38°01' E 023°34'0 0.0
2015-Mar-28 03:33N 38°01' E 023°34'0 0.0
2015-Mar-28 02:33N 38°01' E 023°34'0 0.0
2015-Mar-28 01:33N 38°01' E 023°34'0 0.0
2015-Mar-28 00:33N 38°01' E 023°34'0 0.1
2015-Mar-27 23:28N 38°01' E 023°35'0 0.1
2015-Mar-27 22:33N 38°01' E 023°34'0 0.0
2015-Mar-27 21:33N 38°01' E 023°34'4 0.1
2015-Mar-25 21:14N 37°58' E 023°35'5 7.0
2015-Mar-25 20:33N 37°53' E 023°33'2 2.0
2015-Mar-25 19:33N 37°51' E 023°32'0 0.0
2015-Mar-25 18:33N 37°51' E 023°32'0 0.0
2015-Mar-25 17:33N 37°51' E 023°32'0 0.0
2015-Mar-25 16:33N 37°51' E 023°32'0 0.0
2015-Mar-25 15:32N 37°51' E 023°32'6 6.3
2015-Mar-25 14:32N 37°57' E 023°35'0 0.3
2015-Mar-25 13:32N 37°57' E 023°35'0 0.0
2015-Mar-25 12:27N 37°57' E 023°35'0 0.0
2015-Mar-25 11:33N 37°57' E 023°35'0 0.0
2015-Mar-25 10:33N 37°57' E 023°35'0 0.0
2015-Mar-25 09:27N 37°57' E 023°35'0 0.0
2015-Mar-25 08:33N 37°57' E 023°35'0 0.0
2015-Mar-25 07:33N 37°57' E 023°35'0 0.0
2015-Mar-25 06:33N 37°57' E 023°35'1 0.6
2015-Mar-25 05:33N 37°58' E 023°35'0 0.0
2015-Mar-24 06:26N 37°58' E 023°35'2 1.8
2015-Mar-24 05:17N 37°59' E 023°33'3 0.3
2015-Mar-23 20:13N 38°01' E 023°34'3 0.2
2015-Mar-23 06:04N 37°58' E 023°33'2 2.6
2015-Mar-23 05:26N 37°58' E 023°35'0 0.0
2015-Mar-21 04:33N 37°57' E 023°35'3 2.6
2015-Mar-21 03:30N 37°55' E 023°33'0 0.0
2015-Mar-21 02:33N 37°55' E 023°33'0 0.0
2015-Mar-21 01:33N 37°55' E 023°33'1 0.9
2015-Mar-21 00:33N 37°54' E 023°33'2 1.6
2015-Mar-20 23:33N 37°53' E 023°32'0 0.0
2015-Mar-20 22:33N 37°53' E 023°32'0 0.0
2015-Mar-20 21:33N 37°53' E 023°32'0 0.0
2015-Mar-20 20:33N 37°53' E 023°32'0 0.0
2015-Mar-20 19:33N 37°53' E 023°32'0 0.0
2015-Mar-20 18:33N 37°53' E 023°32'0 0.0
2015-Mar-20 17:33N 37°53' E 023°32'0 0.1
2015-Mar-20 16:33N 37°52' E 023°32'5 1.0
2015-Mar-20 11:24N 37°56' E 023°37'3 3.4
2015-Mar-20 10:33N 37°55' E 023°34'0 0.0
2015-Mar-20 09:33N 37°55' E 023°34'2 2.4
2015-Mar-20 08:32N 37°57' E 023°35'1 0.6
2015-Mar-20 07:23N 37°58' E 023°35'2 0.1
2015-Mar-19 06:25N 37°58' E 023°33'  

Dump ship's entire track history